createdAt,value
2023-03-12T00:01:30.100Z,955.9
2023-03-12T00:04:48.560Z,955.9
2023-03-12T00:05:53.644Z,955.9
2023-03-12T00:06:59.798Z,955.9
2023-03-12T00:08:05.989Z,955.9
2023-03-12T00:09:12.101Z,955.9
2023-03-12T00:10:18.217Z,955.9
2023-03-12T00:13:36.771Z,955.9
2023-03-12T00:14:42.803Z,956
2023-03-12T00:15:48.970Z,955.9
2023-03-12T00:16:55.094Z,956
2023-03-12T00:18:01.224Z,955.9
2023-03-12T00:21:19.646Z,956
2023-03-12T00:22:24.808Z,956
2023-03-12T00:24:37.088Z,956
2023-03-12T00:25:43.256Z,956
2023-03-12T00:26:49.384Z,956
2023-03-12T00:30:07.822Z,956
2023-03-12T00:31:13.968Z,956
2023-03-12T00:33:26.258Z,956
2023-03-12T00:34:32.440Z,956
2023-03-12T00:35:38.559Z,956.1
2023-03-12T00:36:43.724Z,956.1
2023-03-12T00:37:49.837Z,956.1
2023-03-12T00:40:02.127Z,956
2023-03-12T00:41:08.257Z,956.1
2023-03-12T00:43:20.551Z,956.1
2023-03-12T00:45:32.834Z,956.1
2023-03-12T00:46:38.980Z,956.1
2023-03-12T00:47:45.171Z,956.1
2023-03-12T00:48:51.331Z,956.1
2023-03-12T00:49:57.422Z,956.1
2023-03-12T00:51:02.583Z,956.1
2023-03-12T00:52:08.717Z,956.1
2023-03-12T00:53:14.858Z,956
2023-03-12T00:54:21.074Z,956
2023-03-12T00:56:33.320Z,956
2023-03-12T00:57:39.428Z,956
2023-03-12T00:58:45.660Z,956
2023-03-12T00:59:51.720Z,956
2023-03-12T01:02:04.021Z,956
2023-03-12T01:03:10.163Z,956
2023-03-12T01:04:16.296Z,956
2023-03-12T01:05:21.459Z,956
2023-03-12T01:06:27.600Z,956
2023-03-12T01:07:33.739Z,956
2023-03-12T01:08:39.891Z,956
2023-03-12T01:09:46.079Z,956
2023-03-12T01:10:52.178Z,956.1
2023-03-12T01:13:04.452Z,956.1
2023-03-12T01:14:10.600Z,956.1
2023-03-12T01:15:16.743Z,956.1
2023-03-12T01:16:22.940Z,956.1
2023-03-12T01:20:47.464Z,956.1
2023-03-12T01:24:04.945Z,956.1
2023-03-12T01:25:11.051Z,956.1
2023-03-12T01:26:17.228Z,956.1
2023-03-12T01:27:23.342Z,956.1
2023-03-12T01:29:35.626Z,956.1
2023-03-12T01:30:41.780Z,956.2
2023-03-12T01:36:12.497Z,956.2
2023-03-12T01:38:23.812Z,956.2
2023-03-12T01:39:29.934Z,956.1
2023-03-12T01:40:36.077Z,956.1
2023-03-12T01:42:48.365Z,956.2
2023-03-12T01:43:54.531Z,956.2
2023-03-12T01:45:00.661Z,956.2
2023-03-12T01:46:06.798Z,956.2
2023-03-12T01:47:12.939Z,956.2
2023-03-12T01:48:19.088Z,956.1
2023-03-12T01:49:25.223Z,956.2
2023-03-12T01:52:43.662Z,956.2
2023-03-12T01:53:48.891Z,956.1
2023-03-12T01:54:54.953Z,956.1
2023-03-12T01:56:01.098Z,956.1
2023-03-12T01:57:07.318Z,956.1
2023-03-12T01:58:13.391Z,956.1
2023-03-12T01:59:19.561Z,956.1
2023-03-12T02:00:25.701Z,956.1
2023-03-12T02:01:31.824Z,956.1
2023-03-12T02:02:37.974Z,956.1
2023-03-12T02:03:44.107Z,956.1
2023-03-12T02:04:50.253Z,956.1
2023-03-12T02:08:08.682Z,956.1
2023-03-12T02:10:19.983Z,956.1
2023-03-12T02:11:26.114Z,956.1
2023-03-12T02:13:38.426Z,956.1
2023-03-12T02:14:44.560Z,956.1
2023-03-12T02:15:50.703Z,956.1
2023-03-12T02:16:56.842Z,956.1
2023-03-12T02:18:02.979Z,956.1
2023-03-12T02:19:09.133Z,956.2
2023-03-12T02:20:15.285Z,956.1
2023-03-12T02:21:21.416Z,956.1
2023-03-12T02:22:27.560Z,956.1
2023-03-12T02:25:45.015Z,956.1
2023-03-12T02:26:51.164Z,956.1
2023-03-12T02:27:56.320Z,956.1
2023-03-12T02:29:02.506Z,956.1
2023-03-12T02:30:08.606Z,956.2
2023-03-12T02:31:14.855Z,956.2
2023-03-12T02:33:27.053Z,956.2
2023-03-12T02:34:33.172Z,956.3
2023-03-12T02:36:45.484Z,956.2
2023-03-12T02:37:51.628Z,956.2
2023-03-12T02:38:57.752Z,956.2
2023-03-12T02:41:10.051Z,956.2
2023-03-12T02:46:40.903Z,956.1
2023-03-12T02:48:52.085Z,956.1
2023-03-12T02:49:58.212Z,956.2
2023-03-12T02:53:16.631Z,956.2
2023-03-12T02:57:41.209Z,956.2
2023-03-12T02:59:53.606Z,956.2
2023-03-12T03:00:59.650Z,956.2
2023-03-12T03:02:04.819Z,956.2
2023-03-12T03:03:10.949Z,956.2
2023-03-12T03:04:17.091Z,956.2
2023-03-12T03:06:29.387Z,956.2
2023-03-12T03:07:35.525Z,956.2
2023-03-12T03:08:41.662Z,956.2
2023-03-12T03:09:47.832Z,956.2
2023-03-12T03:12:00.096Z,956.2
2023-03-12T03:18:36.955Z,956.2
2023-03-12T03:23:00.557Z,956.2
2023-03-12T03:24:06.686Z,956.2
2023-03-12T03:26:19.003Z,956.2
2023-03-12T03:27:25.122Z,956.2
2023-03-12T03:28:31.298Z,956.2
2023-03-12T03:32:55.844Z,956.1
2023-03-12T03:38:25.596Z,956.1
2023-03-12T03:39:31.911Z,956.1
2023-03-12T03:42:50.147Z,956
2023-03-12T03:43:56.287Z,956
2023-03-12T03:45:02.429Z,956
2023-03-12T03:47:14.721Z,956
2023-03-12T03:48:19.883Z,956
2023-03-12T03:49:26.024Z,955.9
2023-03-12T03:51:38.309Z,955.8
2023-03-12T03:52:44.453Z,955.8
2023-03-12T03:53:50.589Z,955.7
2023-03-12T03:54:56.756Z,955.7
2023-03-12T03:56:02.892Z,955.8
2023-03-12T03:58:15.179Z,955.8
2023-03-12T03:59:21.321Z,955.8
2023-03-12T04:00:27.457Z,955.8
2023-03-12T04:03:45.890Z,956
2023-03-12T04:07:03.330Z,956.1
2023-03-12T04:09:15.652Z,956.2
2023-03-12T04:12:34.107Z,956.3
2023-03-12T04:13:40.290Z,956.3
2023-03-12T04:15:52.490Z,956.3
2023-03-12T04:18:04.820Z,956.3
2023-03-12T04:22:28.368Z,956.2
2023-03-12T04:23:34.500Z,956.2
2023-03-12T04:24:40.639Z,956.2
2023-03-12T04:25:46.796Z,956.2
2023-03-12T04:26:52.936Z,956.2
2023-03-12T04:27:59.114Z,956.2
2023-03-12T04:29:05.260Z,956.2
2023-03-12T04:31:17.517Z,956.2
2023-03-12T04:32:23.653Z,956.1
2023-03-12T04:33:28.833Z,956.1
2023-03-12T04:37:53.382Z,956
2023-03-12T04:38:59.531Z,956.1
2023-03-12T04:40:05.679Z,956
2023-03-12T04:41:11.837Z,956
2023-03-12T04:42:17.961Z,956
2023-03-12T04:43:24.113Z,956
2023-03-12T04:45:36.392Z,956
2023-03-12T04:47:48.684Z,956
2023-03-12T04:48:53.858Z,956
2023-03-12T04:49:59.985Z,956
2023-03-12T04:53:18.420Z,956
2023-03-12T04:56:36.842Z,956
2023-03-12T04:58:49.166Z,956
2023-03-12T04:59:55.312Z,956
2023-03-12T05:01:01.426Z,956
2023-03-12T05:02:07.570Z,956
2023-03-12T05:03:12.733Z,956
2023-03-12T05:04:18.859Z,956
2023-03-12T05:05:25.023Z,955.9
2023-03-12T05:09:49.615Z,956
2023-03-12T05:12:01.882Z,956
2023-03-12T05:13:08.061Z,956
2023-03-12T05:14:14.165Z,956
2023-03-12T05:15:20.312Z,955.9
2023-03-12T05:16:26.452Z,956
2023-03-12T05:17:31.616Z,956
2023-03-12T05:18:37.767Z,955.9
2023-03-12T05:19:43.892Z,955.9
2023-03-12T05:20:50.043Z,956
2023-03-12T05:21:56.189Z,956
2023-03-12T05:23:02.333Z,956
2023-03-12T05:26:20.762Z,956.1
2023-03-12T05:27:26.903Z,956.1
2023-03-12T05:28:33.045Z,956.1
2023-03-12T05:29:39.184Z,956.1
2023-03-12T05:31:51.477Z,956.1
2023-03-12T05:32:56.645Z,956.1
2023-03-12T05:34:02.785Z,956.1
2023-03-12T05:35:08.924Z,956.1
2023-03-12T05:36:15.083Z,956.1
2023-03-12T05:37:21.206Z,956.1
2023-03-12T05:38:27.358Z,956.1
2023-03-12T05:43:58.075Z,956.3
2023-03-12T05:45:04.206Z,956.3
2023-03-12T05:46:10.356Z,956.3
2023-03-12T05:47:16.504Z,956.3
2023-03-12T05:49:27.803Z,956.3
2023-03-12T05:50:33.944Z,956.3
2023-03-12T05:51:40.084Z,956.2
2023-03-12T05:52:46.229Z,956.2
2023-03-12T05:53:52.375Z,956.2
2023-03-12T05:54:58.519Z,956.2
2023-03-12T06:01:35.390Z,956.2
2023-03-12T06:02:41.516Z,956.2
2023-03-12T06:08:11.255Z,956.1
2023-03-12T06:10:22.574Z,956.1
2023-03-12T06:11:27.721Z,956
2023-03-12T06:18:04.590Z,956.2
2023-03-12T06:19:10.737Z,956.2
2023-03-12T06:22:29.178Z,956.2
2023-03-12T06:23:35.307Z,956.1
2023-03-12T06:24:41.447Z,956.1
2023-03-12T06:25:46.609Z,956.1
2023-03-12T06:26:52.753Z,956.2
2023-03-12T06:27:58.898Z,956.2
2023-03-12T06:29:05.039Z,956.2
2023-03-12T06:36:48.066Z,956.2
2023-03-12T06:37:54.188Z,956.2
2023-03-12T06:39:00.326Z,956.2
2023-03-12T06:41:11.629Z,956.3
2023-03-12T06:42:17.782Z,956.2
2023-03-12T06:44:30.062Z,956.3
2023-03-12T06:45:36.202Z,956.4
2023-03-12T06:48:54.669Z,956.4
2023-03-12T06:50:00.782Z,956.4
2023-03-12T06:51:06.952Z,956.4
2023-03-12T06:52:13.070Z,956.4
2023-03-12T06:53:19.209Z,956.4
2023-03-12T06:54:24.381Z,956.4
2023-03-12T06:55:30.515Z,956.5
2023-03-12T06:56:36.649Z,956.4
2023-03-12T06:57:42.798Z,956.4
2023-03-12T06:58:48.951Z,956.4
2023-03-12T06:59:55.093Z,956.4
2023-03-12T07:01:01.234Z,956.5
2023-03-12T07:03:13.520Z,956.6
2023-03-12T07:05:25.810Z,956.7
2023-03-12T07:06:31.991Z,956.7
2023-03-12T07:07:38.099Z,956.7
2023-03-12T07:09:50.380Z,956.8
2023-03-12T07:10:55.548Z,956.8
2023-03-12T07:12:01.686Z,956.8
2023-03-12T07:13:07.828Z,956.8
2023-03-12T07:14:13.976Z,956.9
2023-03-12T07:15:20.120Z,956.9
2023-03-12T07:16:26.261Z,957
2023-03-12T07:17:32.543Z,957
2023-03-12T07:21:56.982Z,957
2023-03-12T07:23:03.148Z,957
2023-03-12T07:24:09.281Z,957
2023-03-12T07:25:15.459Z,957
2023-03-12T07:26:20.566Z,957
2023-03-12T07:28:32.896Z,957.1
2023-03-12T07:30:45.177Z,957.1
2023-03-12T07:32:57.443Z,957.1
2023-03-12T07:34:03.621Z,957
2023-03-12T07:38:28.144Z,957
2023-03-12T07:39:34.481Z,957.1
2023-03-12T07:41:45.804Z,957.1
2023-03-12T07:43:58.008Z,957.2
2023-03-12T07:47:16.316Z,957.1
2023-03-12T07:48:22.519Z,957.1
2023-03-12T07:49:28.600Z,957
2023-03-12T07:51:40.899Z,957.1
2023-03-12T07:56:05.461Z,957.1
2023-03-12T07:58:16.954Z,957.1
2023-03-12T07:59:22.995Z,957.1
2023-03-12T08:00:29.053Z,957.1
2023-03-12T08:03:47.479Z,957.1
2023-03-12T08:04:53.619Z,957.1
2023-03-12T08:05:59.913Z,957.1
2023-03-12T08:08:12.053Z,957.2
2023-03-12T08:09:18.199Z,957.2
2023-03-12T08:11:30.477Z,957.1
2023-03-12T08:12:35.636Z,957.2
2023-03-12T08:17:00.216Z,957.3
2023-03-12T08:19:12.497Z,957.2
2023-03-12T08:20:18.640Z,957.2
2023-03-12T08:22:30.941Z,957.1
2023-03-12T08:28:01.730Z,957.2
2023-03-12T08:31:19.094Z,957.2
2023-03-12T08:32:25.234Z,957.2
2023-03-12T08:33:31.379Z,957.2
2023-03-12T08:36:49.804Z,957.3
2023-03-12T08:40:08.244Z,957.3
2023-03-12T08:44:33.033Z,957.3
2023-03-12T08:48:56.597Z,957.3
2023-03-12T08:53:21.094Z,957.3
2023-03-12T08:54:27.328Z,957.3
2023-03-12T08:57:45.773Z,957.4
2023-03-12T09:09:53.248Z,957.5
2023-03-12T09:19:47.568Z,957.4
2023-03-12T09:23:05.993Z,957.4
2023-03-12T09:26:24.425Z,957.5
2023-03-12T09:29:42.900Z,957.5
2023-03-12T09:39:37.151Z,957.6
2023-03-12T09:42:55.712Z,957.7
2023-03-12T09:46:14.065Z,957.7
2023-03-12T09:52:49.881Z,957.8
2023-03-12T09:56:07.410Z,957.8
2023-03-12T09:59:25.749Z,957.8
2023-03-12T10:02:43.216Z,957.8
2023-03-12T10:09:19.095Z,957.8
2023-03-12T10:12:36.541Z,957.8
2023-03-12T10:15:54.981Z,957.8
2023-03-12T10:19:12.443Z,957.8
2023-03-12T10:25:49.287Z,957.8
2023-03-12T10:29:07.710Z,957.8
2023-03-12T10:30:13.884Z,957.8
2023-03-12T10:35:43.613Z,957.9
2023-03-12T10:42:19.463Z,957.9
2023-03-12T10:48:56.353Z,958.3
2023-03-12T10:52:14.758Z,958.3
2023-03-12T10:58:51.622Z,958.4
2023-03-12T11:05:27.513Z,958.5
2023-03-12T11:08:45.972Z,958.5
2023-03-12T11:15:22.795Z,958.5
2023-03-12T11:20:53.517Z,958.6
2023-03-12T11:25:18.086Z,958.5
2023-03-12T11:31:53.976Z,958.5
2023-03-12T11:33:00.136Z,958.5
2023-03-12T11:38:29.853Z,958.5
2023-03-12T11:41:47.293Z,958.4
2023-03-12T11:46:10.888Z,958.5
2023-03-12T11:48:22.204Z,958.4
2023-03-12T11:58:16.534Z,958.5
2023-03-12T12:03:46.261Z,958.4
2023-03-12T12:08:09.872Z,958.4
2023-03-12T12:13:40.660Z,958.2
2023-03-12T12:14:46.702Z,958.2
2023-03-12T12:15:52.840Z,958.2
2023-03-12T12:22:28.739Z,958.2
2023-03-12T12:23:33.893Z,958.2
2023-03-12T12:24:40.042Z,958.2
2023-03-12T12:25:46.225Z,958.2
2023-03-12T12:29:04.605Z,958.1
2023-03-12T12:31:16.917Z,958.1
2023-03-12T12:35:41.452Z,958.1
2023-03-12T12:37:53.817Z,958
2023-03-12T12:38:58.907Z,958
2023-03-12T12:40:05.060Z,958
2023-03-12T12:41:11.198Z,958
2023-03-12T12:42:17.392Z,958
2023-03-12T12:44:29.641Z,958
2023-03-12T12:45:35.803Z,958
2023-03-12T12:46:41.903Z,957.9
2023-03-12T12:47:48.122Z,957.9
2023-03-12T12:48:54.194Z,957.9
2023-03-12T12:50:00.328Z,957.9
2023-03-12T12:52:12.643Z,958
2023-03-12T12:53:17.781Z,958
2023-03-12T12:54:23.931Z,958
2023-03-12T12:55:30.072Z,958
2023-03-12T12:56:36.243Z,958
2023-03-12T12:57:42.352Z,958
2023-03-12T12:58:48.492Z,957.9
2023-03-12T12:59:54.640Z,957.9
2023-03-12T13:01:00.768Z,958
2023-03-12T13:02:07.035Z,958
2023-03-12T13:03:13.078Z,958
2023-03-12T13:04:19.214Z,958
2023-03-12T13:06:31.493Z,958.1
2023-03-12T13:08:42.822Z,958
2023-03-12T13:10:55.087Z,958.1
2023-03-12T13:12:01.221Z,958.2
2023-03-12T13:14:13.515Z,958.1
2023-03-12T13:17:31.949Z,958
2023-03-12T13:18:38.094Z,958
2023-03-12T13:21:56.509Z,957.9
2023-03-12T13:23:01.694Z,957.9
2023-03-12T13:25:14.028Z,957.8
2023-03-12T13:26:20.109Z,957.9
2023-03-12T13:27:26.260Z,957.8
2023-03-12T13:29:38.564Z,957.9
2023-03-12T13:30:44.784Z,957.9
2023-03-12T13:31:50.846Z,958
2023-03-12T13:32:56.977Z,958
2023-03-12T13:34:03.186Z,958
2023-03-12T13:35:09.253Z,958
2023-03-12T13:36:15.393Z,958
2023-03-12T13:38:26.691Z,958.1
2023-03-12T13:41:45.159Z,958.1
2023-03-12T13:42:51.265Z,958.1
2023-03-12T13:43:57.439Z,958.1
2023-03-12T13:46:09.698Z,958.1
2023-03-12T13:47:15.845Z,958.1
2023-03-12T13:49:28.158Z,958.1
2023-03-12T13:50:34.276Z,958.2
2023-03-12T13:52:45.572Z,958.1
2023-03-12T13:53:51.718Z,958.1
2023-03-12T13:54:57.848Z,958.1
2023-03-12T13:56:03.997Z,958.1
2023-03-12T13:58:16.425Z,958.2
2023-03-12T13:59:22.436Z,958.2
2023-03-12T14:00:28.712Z,958.2
2023-03-12T14:01:34.860Z,958.2
2023-03-12T14:02:40.998Z,958.1
2023-03-12T14:03:47.184Z,958.1
2023-03-12T14:05:59.532Z,958.1
2023-03-12T14:07:04.588Z,958.1
2023-03-12T14:08:10.737Z,958.1
2023-03-12T14:09:16.875Z,958.1
2023-03-12T14:10:23.014Z,958.1
2023-03-12T14:11:29.148Z,958.1
2023-03-12T14:12:35.402Z,958.1
2023-03-12T14:14:47.597Z,958.1
2023-03-12T14:15:53.728Z,958
2023-03-12T14:16:59.909Z,957.9
2023-03-12T14:18:06.080Z,957.9
2023-03-12T14:19:12.165Z,957.9
2023-03-12T14:20:18.305Z,958
2023-03-12T14:21:23.468Z,958
2023-03-12T14:22:29.609Z,958
2023-03-12T14:23:35.752Z,958
2023-03-12T14:24:41.893Z,958
2023-03-12T14:25:48.041Z,958
2023-03-12T14:26:54.183Z,958
2023-03-12T14:28:00.345Z,957.9
2023-03-12T14:29:05.500Z,957.9
2023-03-12T14:31:16.802Z,957.9
2023-03-12T14:32:22.940Z,957.8
2023-03-12T14:33:29.092Z,957.9
2023-03-12T14:34:35.221Z,957.9
2023-03-12T14:35:41.374Z,957.8
2023-03-12T14:36:47.519Z,957.8
2023-03-12T14:37:53.649Z,957.8
2023-03-12T14:38:59.805Z,957.8
2023-03-12T14:40:05.937Z,957.8
2023-03-12T14:41:12.090Z,957.8
2023-03-12T14:42:17.313Z,957.8
2023-03-12T14:43:22.413Z,957.8
2023-03-12T14:45:34.711Z,957.9
2023-03-12T14:48:53.126Z,957.8
2023-03-12T14:49:59.286Z,957.8
2023-03-12T14:51:05.414Z,957.7
2023-03-12T14:52:11.572Z,957.7
2023-03-12T14:53:17.709Z,957.7
2023-03-12T14:54:23.862Z,957.7
2023-03-12T14:56:36.146Z,957.6
2023-03-12T14:58:47.448Z,957.7
2023-03-12T14:59:52.600Z,957.7
2023-03-12T15:00:57.778Z,957.7
2023-03-12T15:04:16.186Z,957.6
2023-03-12T15:05:22.338Z,957.5
2023-03-12T15:06:28.563Z,957.6
2023-03-12T15:07:34.655Z,957.5
2023-03-12T15:08:40.760Z,957.5
2023-03-12T15:09:46.904Z,957.6
2023-03-12T15:10:53.050Z,957.6
2023-03-12T15:11:59.176Z,957.6
2023-03-12T15:13:05.337Z,957.6
2023-03-12T15:14:11.485Z,957.6
2023-03-12T15:15:16.634Z,957.7
2023-03-12T15:16:22.794Z,957.7
2023-03-12T15:17:28.922Z,957.7
2023-03-12T15:18:35.073Z,957.7
2023-03-12T15:21:53.493Z,957.6
2023-03-12T15:22:59.630Z,957.6
2023-03-12T15:24:05.869Z,957.6
2023-03-12T15:25:11.928Z,957.6
2023-03-12T15:26:18.098Z,957.6
2023-03-12T15:29:36.501Z,957.6
2023-03-12T15:31:47.808Z,957.7
2023-03-12T15:32:53.947Z,957.6
2023-03-12T15:35:06.241Z,957.6
2023-03-12T15:37:18.513Z,957.6
2023-03-12T15:38:24.678Z,957.6
2023-03-12T15:39:30.803Z,957.6
2023-03-12T15:40:37.014Z,957.6
2023-03-12T15:41:43.087Z,957.6
2023-03-12T15:42:49.235Z,957.7
2023-03-12T15:43:55.381Z,957.6
2023-03-12T15:45:00.551Z,957.7
2023-03-12T15:46:06.708Z,957.7
2023-03-12T15:48:18.967Z,957.7
2023-03-12T15:49:25.158Z,957.7
2023-03-12T15:51:37.435Z,957.7
2023-03-12T15:54:55.822Z,957.6
2023-03-12T15:56:01.963Z,957.6
2023-03-12T15:57:08.158Z,957.6
2023-03-12T15:59:20.393Z,957.6
2023-03-12T16:00:25.643Z,957.6
2023-03-12T16:01:31.693Z,957.6
2023-03-12T16:02:37.833Z,957.6
2023-03-12T16:03:43.990Z,957.6
2023-03-12T16:05:55.308Z,957.6
2023-03-12T16:07:00.464Z,957.6
2023-03-12T16:10:18.892Z,957.6
2023-03-12T16:11:25.032Z,957.6
2023-03-12T16:12:31.341Z,957.6
2023-03-12T16:13:37.336Z,957.6
2023-03-12T16:14:43.597Z,957.6
2023-03-12T16:15:49.615Z,957.5
2023-03-12T16:16:55.752Z,957.5
2023-03-12T16:19:08.032Z,957.5
2023-03-12T16:20:14.179Z,957.5
2023-03-12T16:21:19.359Z,957.5
2023-03-12T16:22:25.481Z,957.5
2023-03-12T16:24:37.772Z,957.4
2023-03-12T16:26:50.062Z,957.5
2023-03-12T16:27:56.302Z,957.5
2023-03-12T16:29:02.532Z,957.5
2023-03-12T16:30:08.497Z,957.5
2023-03-12T16:31:14.676Z,957.6
2023-03-12T16:32:20.768Z,957.6
2023-03-12T16:33:26.931Z,957.6
2023-03-12T16:34:33.145Z,957.6
2023-03-12T16:35:38.217Z,957.6
2023-03-12T16:36:44.521Z,957.6
2023-03-12T16:37:50.721Z,957.7
2023-03-12T16:38:56.660Z,957.6
2023-03-12T16:40:02.790Z,957.6
2023-03-12T16:41:08.948Z,957.6
2023-03-12T16:44:27.474Z,957.6
2023-03-12T16:45:33.530Z,957.6
2023-03-12T16:47:45.792Z,957.7
2023-03-12T16:48:51.953Z,957.7
2023-03-12T16:49:57.103Z,957.7
2023-03-12T16:51:03.338Z,957.7
2023-03-12T16:52:09.439Z,957.7
2023-03-12T16:54:21.694Z,957.7
2023-03-12T16:55:27.850Z,957.7
2023-03-12T16:56:34.024Z,957.6
2023-03-12T16:57:40.212Z,957.6
2023-03-12T16:59:52.386Z,957.6
2023-03-12T17:00:58.564Z,957.6
2023-03-12T17:02:04.692Z,957.6
2023-03-12T17:03:10.862Z,957.6
2023-03-12T17:05:22.109Z,957.6
2023-03-12T17:06:28.255Z,957.6
2023-03-12T17:07:34.412Z,957.5
2023-03-12T17:08:40.536Z,957.5
2023-03-12T17:09:46.705Z,957.6
2023-03-12T17:10:52.882Z,957.6
2023-03-12T17:11:58.978Z,957.6
2023-03-12T17:13:05.154Z,957.6
2023-03-12T17:14:11.259Z,957.6
2023-03-12T17:16:23.573Z,957.6
2023-03-12T17:17:29.704Z,957.6
2023-03-12T17:18:35.835Z,957.6
2023-03-12T17:19:40.991Z,957.6
2023-03-12T17:20:47.127Z,957.7
2023-03-12T17:21:53.274Z,957.7
2023-03-12T17:22:59.418Z,957.8
2023-03-12T17:24:05.567Z,957.7
2023-03-12T17:25:11.718Z,957.7
2023-03-12T17:26:17.848Z,957.8
2023-03-12T17:27:23.989Z,957.7
2023-03-12T17:28:29.227Z,957.7
2023-03-12T17:29:34.342Z,957.8
2023-03-12T17:30:40.514Z,957.8
2023-03-12T17:33:58.903Z,957.7
2023-03-12T17:35:05.150Z,957.8
2023-03-12T17:36:11.189Z,957.8
2023-03-12T17:37:17.326Z,957.8
2023-03-12T17:38:23.471Z,957.8
2023-03-12T17:40:35.821Z,957.8
2023-03-12T17:41:42.056Z,957.8
2023-03-12T17:42:48.036Z,957.8
2023-03-12T17:43:53.209Z,957.8
2023-03-12T17:44:58.380Z,957.8
2023-03-12T17:46:04.514Z,957.8
2023-03-12T17:47:10.659Z,957.8
2023-03-12T17:50:29.089Z,957.7
2023-03-12T17:51:35.319Z,957.7
2023-03-12T17:52:41.378Z,957.7
2023-03-12T17:53:47.525Z,957.7
2023-03-12T17:54:53.672Z,957.7
2023-03-12T17:55:59.890Z,957.7
2023-03-12T17:57:05.949Z,957.7
2023-03-12T17:58:12.117Z,957.7
2023-03-12T17:59:17.256Z,957.7
2023-03-12T18:01:29.643Z,957.7
2023-03-12T18:02:35.742Z,957.7
2023-03-12T18:03:41.823Z,957.8
2023-03-12T18:05:54.115Z,957.9
2023-03-12T18:07:00.265Z,957.9
2023-03-12T18:08:06.398Z,958
2023-03-12T18:09:12.539Z,958
2023-03-12T18:10:18.709Z,958
2023-03-12T18:11:24.853Z,957.9
2023-03-12T18:13:37.110Z,957.9
2023-03-12T18:14:42.277Z,957.9
2023-03-12T18:16:54.615Z,957.9
2023-03-12T18:18:00.707Z,957.9
2023-03-12T18:19:06.930Z,957.9
2023-03-12T18:20:13.010Z,958
2023-03-12T18:24:37.558Z,958
2023-03-12T18:25:43.722Z,957.9
2023-03-12T18:26:49.848Z,957.9
2023-03-12T18:27:55.987Z,957.9
2023-03-12T18:29:01.152Z,957.9
2023-03-12T18:30:07.290Z,957.9
2023-03-12T18:31:13.438Z,957.9
2023-03-12T18:34:31.873Z,957.9
2023-03-12T18:35:38.022Z,958
2023-03-12T18:36:44.163Z,958
2023-03-12T18:38:56.437Z,958
2023-03-12T18:40:02.585Z,958
2023-03-12T18:41:08.726Z,958.1
2023-03-12T18:42:14.872Z,958.1
2023-03-12T18:43:21.008Z,958.1
2023-03-12T18:44:26.187Z,958.1
2023-03-12T18:47:44.610Z,958.2
2023-03-12T18:49:56.911Z,958.2
2023-03-12T18:51:03.049Z,958.2
2023-03-12T18:53:15.321Z,958.2
2023-03-12T18:55:27.606Z,958.2
2023-03-12T18:57:39.895Z,958.2
2023-03-12T18:58:46.060Z,958.2
2023-03-12T18:59:51.197Z,958.2
2023-03-12T19:00:57.418Z,958.2
2023-03-12T19:02:03.475Z,958.3
2023-03-12T19:03:09.634Z,958.3
2023-03-12T19:04:15.771Z,958.3
2023-03-12T19:05:21.971Z,958.3
2023-03-12T19:06:28.092Z,958.3
2023-03-12T19:07:34.199Z,958.3
2023-03-12T19:08:40.348Z,958.2
2023-03-12T19:09:46.507Z,958.2
2023-03-12T19:11:58.766Z,958.3
2023-03-12T19:13:04.931Z,958.3
2023-03-12T19:14:10.100Z,958.3
2023-03-12T19:15:16.281Z,958.3
2023-03-12T19:16:22.407Z,958.3
2023-03-12T19:17:28.693Z,958.3
2023-03-12T19:19:40.949Z,958.3
2023-03-12T19:21:53.132Z,958.3
2023-03-12T19:24:05.375Z,958.2
2023-03-12T19:25:11.563Z,958.2
2023-03-12T19:26:17.671Z,958.3
2023-03-12T19:28:30.002Z,958.3
2023-03-12T19:29:35.111Z,958.3
2023-03-12T19:30:41.241Z,958.3
2023-03-12T19:31:47.497Z,958.3
2023-03-12T19:33:59.683Z,958.3
2023-03-12T19:35:05.814Z,958.3
2023-03-12T19:36:11.978Z,958.3
2023-03-12T19:37:18.090Z,958.3
2023-03-12T19:38:24.268Z,958.3
2023-03-12T19:40:36.648Z,958.3
2023-03-12T19:41:42.711Z,958.3
2023-03-12T19:45:01.102Z,958.3
2023-03-12T19:46:06.324Z,958.3
2023-03-12T19:48:18.686Z,958.3
2023-03-12T19:49:23.846Z,958.3
2023-03-12T19:50:29.959Z,958.4
2023-03-12T19:52:42.178Z,958.4
2023-03-12T19:53:48.378Z,958.4
2023-03-12T19:54:54.422Z,958.4
2023-03-12T19:57:06.782Z,958.5
2023-03-12T19:58:12.914Z,958.5
2023-03-12T19:59:19.086Z,958.5
2023-03-12T20:01:31.431Z,958.5
2023-03-12T20:02:37.564Z,958.5
2023-03-12T20:03:43.650Z,958.5
2023-03-12T20:04:48.917Z,958.5
2023-03-12T20:07:01.021Z,958.5
2023-03-12T20:08:07.165Z,958.5
2023-03-12T20:09:13.395Z,958.5
2023-03-12T20:10:19.467Z,958.5
2023-03-12T20:11:25.633Z,958.6
2023-03-12T20:12:31.809Z,958.6
2023-03-12T20:13:37.922Z,958.6
2023-03-12T20:18:02.446Z,958.6
2023-03-12T20:19:07.737Z,958.6
2023-03-12T20:20:13.801Z,958.6
2023-03-12T20:21:19.895Z,958.6
2023-03-12T20:23:32.300Z,958.6
2023-03-12T20:24:38.452Z,958.6
2023-03-12T20:25:44.470Z,958.7
2023-03-12T20:27:56.756Z,958.7
2023-03-12T20:29:02.903Z,958.7
2023-03-12T20:30:09.112Z,958.8
2023-03-12T20:31:15.310Z,958.8
2023-03-12T20:34:33.651Z,958.8
2023-03-12T20:35:38.917Z,958.8
2023-03-12T20:36:44.974Z,958.9
2023-03-12T20:37:51.072Z,958.8
2023-03-12T20:38:57.212Z,958.8
2023-03-12T20:40:03.357Z,958.8
2023-03-12T20:42:15.656Z,958.8
2023-03-12T20:43:21.805Z,958.8
2023-03-12T20:45:34.089Z,958.8
2023-03-12T20:46:40.212Z,958.7
2023-03-12T20:47:46.351Z,958.8
2023-03-12T20:48:52.567Z,958.8
2023-03-12T20:51:03.816Z,958.7
2023-03-12T20:53:16.260Z,958.8
2023-03-12T20:54:22.355Z,958.8
2023-03-12T20:55:28.502Z,958.8
2023-03-12T20:56:34.644Z,958.8
2023-03-12T20:57:40.812Z,958.8
2023-03-12T20:58:46.968Z,958.8
2023-03-12T20:59:53.073Z,958.8
2023-03-12T21:00:59.220Z,958.8
2023-03-12T21:02:05.358Z,958.8
2023-03-12T21:03:11.510Z,958.8
2023-03-12T21:04:16.669Z,958.7
2023-03-12T21:05:22.811Z,958.7
2023-03-12T21:08:41.245Z,958.8
2023-03-12T21:09:47.455Z,958.8
2023-03-12T21:11:59.700Z,958.8
2023-03-12T21:13:05.826Z,958.8
2023-03-12T21:14:11.965Z,958.8
2023-03-12T21:15:18.091Z,958.8
2023-03-12T21:16:24.248Z,958.8
2023-03-12T21:17:30.414Z,958.8
2023-03-12T21:18:36.532Z,958.8
2023-03-12T21:19:42.680Z,958.8
2023-03-12T21:20:47.901Z,958.8
2023-03-12T21:24:06.269Z,958.7
2023-03-12T21:25:12.413Z,958.7
2023-03-12T21:26:18.550Z,958.7
2023-03-12T21:27:24.696Z,958.7
2023-03-12T21:28:30.845Z,958.7
2023-03-12T21:29:37.189Z,958.7
2023-03-12T21:30:43.305Z,958.6
2023-03-12T21:31:49.413Z,958.7
2023-03-12T21:32:55.527Z,958.7
2023-03-12T21:34:01.715Z,958.6
2023-03-12T21:35:07.767Z,958.6
2023-03-12T21:36:13.023Z,958.6
2023-03-12T21:37:19.022Z,958.7
2023-03-12T21:42:49.728Z,958.7
2023-03-12T21:43:55.886Z,958.6
2023-03-12T21:45:02.017Z,958.6
2023-03-12T21:46:08.166Z,958.6
2023-03-12T21:47:14.301Z,958.6
2023-03-12T21:49:26.628Z,958.6
2023-03-12T21:51:37.990Z,958.6
2023-03-12T21:52:44.119Z,958.5
2023-03-12T21:53:50.294Z,958.5
2023-03-12T21:54:56.423Z,958.5
2023-03-12T21:58:14.739Z,958.4
2023-03-12T21:59:20.920Z,958.3
2023-03-12T22:00:27.050Z,958.3
2023-03-12T22:01:33.274Z,958.4
2023-03-12T22:02:39.430Z,958.4
2023-03-12T22:03:45.551Z,958.4
2023-03-12T22:04:51.656Z,958.4
2023-03-12T22:05:56.814Z,958.4
2023-03-12T22:07:02.997Z,958.4
2023-03-12T22:08:09.050Z,958.4
2023-03-12T22:09:15.187Z,958.4
2023-03-12T22:13:39.788Z,958.4
2023-03-12T22:14:45.923Z,958.4
2023-03-12T22:16:58.243Z,958.4
2023-03-12T22:18:04.462Z,958.4
2023-03-12T22:19:10.516Z,958.5
2023-03-12T22:21:21.789Z,958.5
2023-03-12T22:22:27.919Z,958.5
2023-03-12T22:23:34.140Z,958.4
2023-03-12T22:24:40.231Z,958.4
2023-03-12T22:25:46.343Z,958.4
2023-03-12T22:26:52.549Z,958.3
2023-03-12T22:27:58.642Z,958.3
2023-03-12T22:32:23.237Z,958.3
2023-03-12T22:34:35.564Z,958.3
2023-03-12T22:35:40.744Z,958.2
2023-03-12T22:36:46.845Z,958.2
2023-03-12T22:37:53.054Z,958.2
2023-03-12T22:38:59.203Z,958.2
2023-03-12T22:41:11.363Z,958.2
2023-03-12T22:42:17.531Z,958.2
2023-03-12T22:43:23.676Z,958.2
2023-03-12T22:44:29.827Z,958.1
2023-03-12T22:46:42.093Z,958.1